Barter Island, Barter Island LRRS Airport (PABA)

NameBarter Island LRRS Airport
CityBarter Island
CountryUnited States
ICAOPABA
IATABTI
Altitude1 m
CoordinatesGoogle Map
Live Air TrafficLiveATC.net
METARPABA 211152Z 10025KT 10SM M04/M06 A2979
2019-10-21 11:52:00 Wind: East (100°) 12.86 m/s - Visibility: 16093.4 m - Temperature: -4 °C - Dew point: -6 °C - Humidity: 86.2% - Pressure: 1008.81 hPa
Statistics

The table below shows the detailed information of all flights to/from Barter Island, Barter Island LRRS Airport (PABA).